sensor_id;sensor_type;location;lat;lon;timestamp;pressure;altitude;pressure_sealevel;temperature;humidity
70468;BME280;57934;51.532;7.684;2022-11-14T00:02:12;100411.44;;;4.72;80.19
70468;BME280;57934;51.532;7.684;2022-11-14T00:04:57;100417.13;;;4.68;80.79
70468;BME280;57934;51.532;7.684;2022-11-14T00:07:41;100418.53;;;4.62;80.71
70468;BME280;57934;51.532;7.684;2022-11-14T00:10:25;100415.91;;;4.62;81.04
70468;BME280;57934;51.532;7.684;2022-11-14T00:13:10;100416.22;;;4.59;81.11
70468;BME280;57934;51.532;7.684;2022-11-14T00:15:54;100410.78;;;4.52;80.79
70468;BME280;57934;51.532;7.684;2022-11-14T00:18:39;100403.91;;;4.51;81.39
70468;BME280;57934;51.532;7.684;2022-11-14T00:21:23;100407.13;;;4.45;81.75
70468;BME280;57934;51.532;7.684;2022-11-14T00:24:08;100401.25;;;4.43;81.98
70468;BME280;57934;51.532;7.684;2022-11-14T00:26:52;100402.66;;;4.38;82.50
70468;BME280;57934;51.532;7.684;2022-11-14T00:29:37;100400.34;;;4.35;82.31
70468;BME280;57934;51.532;7.684;2022-11-14T00:32:22;100402.13;;;4.34;82.51
70468;BME280;57934;51.532;7.684;2022-11-14T00:35:07;100403.25;;;4.31;82.34
70468;BME280;57934;51.532;7.684;2022-11-14T00:37:53;100396.09;;;4.34;82.37
70468;BME280;57934;51.532;7.684;2022-11-14T00:40:37;100394.31;;;4.34;82.68
70468;BME280;57934;51.532;7.684;2022-11-14T00:43:21;100392.69;;;4.33;82.52
70468;BME280;57934;51.532;7.684;2022-11-14T00:46:06;100387.28;;;4.35;82.63
70468;BME280;57934;51.532;7.684;2022-11-14T00:48:51;100384.56;;;4.36;82.33
70468;BME280;57934;51.532;7.684;2022-11-14T00:51:35;100384.56;;;4.36;83.22
70468;BME280;57934;51.532;7.684;2022-11-14T00:54:20;100382.88;;;4.35;82.45
70468;BME280;57934;51.532;7.684;2022-11-14T00:57:05;100378.13;;;4.30;83.06
70468;BME280;57934;51.532;7.684;2022-11-14T00:59:49;100374.69;;;4.30;82.65
70468;BME280;57934;51.532;7.684;2022-11-14T01:02:34;100372.38;;;4.27;82.87
70468;BME280;57934;51.532;7.684;2022-11-14T01:05:18;100379.25;;;4.28;83.53
70468;BME280;57934;51.532;7.684;2022-11-14T01:08:03;100376.50;;;4.29;82.50
70468;BME280;57934;51.532;7.684;2022-11-14T01:10:49;100367.03;;;4.28;82.12
70468;BME280;57934;51.532;7.684;2022-11-14T01:13:34;100361.13;;;4.26;82.67
70468;BME280;57934;51.532;7.684;2022-11-14T01:16:18;100366.94;;;4.20;82.50
70468;BME280;57934;51.532;7.684;2022-11-14T01:19:03;100357.94;;;4.15;82.25
70468;BME280;57934;51.532;7.684;2022-11-14T01:21:48;100348.44;;;4.14;82.31
70468;BME280;57934;51.532;7.684;2022-11-14T01:24:33;100346.81;;;4.13;82.38
70468;BME280;57934;51.532;7.684;2022-11-14T01:27:17;100341.09;;;4.09;82.33
70468;BME280;57934;51.532;7.684;2022-11-14T01:30:02;100328.50;;;4.04;82.49
70468;BME280;57934;51.532;7.684;2022-11-14T01:32:47;100326.31;;;4.00;82.54
70468;BME280;57934;51.532;7.684;2022-11-14T01:35:33;100312.41;;;3.91;82.38
70468;BME280;57934;51.532;7.684;2022-11-14T01:38:18;100312.69;;;3.88;82.15
70468;BME280;57934;51.532;7.684;2022-11-14T01:41:03;100316.69;;;3.82;82.77
70468;BME280;57934;51.532;7.684;2022-11-14T01:43:48;100321.03;;;3.74;82.31
70468;BME280;57934;51.532;7.684;2022-11-14T01:46:34;100303.25;;;3.69;82.34
70468;BME280;57934;51.532;7.684;2022-11-14T01:49:23;100312.75;;;3.61;82.62
70468;BME280;57934;51.532;7.684;2022-11-14T01:52:19;100310.50;;;3.48;83.02
70468;BME280;57934;51.532;7.684;2022-11-14T01:55:07;100304.25;;;3.41;83.08
70468;BME280;57934;51.532;7.684;2022-11-14T01:57:53;100299.44;;;3.36;83.49
70468;BME280;57934;51.532;7.684;2022-11-14T02:00:39;100301.13;;;3.37;83.74
70468;BME280;57934;51.532;7.684;2022-11-14T02:03:24;100293.88;;;3.31;83.07
70468;BME280;57934;51.532;7.684;2022-11-14T02:06:13;100304.13;;;3.32;83.57
70468;BME280;57934;51.532;7.684;2022-11-14T02:09:01;100300.44;;;3.35;83.76
70468;BME280;57934;51.532;7.684;2022-11-14T02:11:45;100291.78;;;3.34;83.37
70468;BME280;57934;51.532;7.684;2022-11-14T02:14:32;100289.19;;;3.34;82.88
70468;BME280;57934;51.532;7.684;2022-11-14T02:17:18;100286.88;;;3.31;83.38
70468;BME280;57934;51.532;7.684;2022-11-14T02:20:15;100282.09;;;3.27;83.34
70468;BME280;57934;51.532;7.684;2022-11-14T02:23:00;100269.59;;;3.30;83.46
70468;BME280;57934;51.532;7.684;2022-11-14T02:25:44;100267.56;;;3.24;83.74
70468;BME280;57934;51.532;7.684;2022-11-14T02:28:29;100263.91;;;3.17;84.15
70468;BME280;57934;51.532;7.684;2022-11-14T02:31:14;100261.75;;;3.13;83.82
70468;BME280;57934;51.532;7.684;2022-11-14T02:33:59;100264.50;;;3.11;84.62
70468;BME280;57934;51.532;7.684;2022-11-14T02:40:31;100261.75;;;3.13;84.10
70468;BME280;57934;51.532;7.684;2022-11-14T02:43:16;100268.50;;;3.05;84.81
70468;BME280;57934;51.532;7.684;2022-11-14T02:46:00;100256.44;;;3.04;84.86
70468;BME280;57934;51.532;7.684;2022-11-14T02:48:45;100254.13;;;3.01;84.97
70468;BME280;57934;51.532;7.684;2022-11-14T02:51:29;100248.91;;;3.01;85.43
70468;BME280;57934;51.532;7.684;2022-11-14T02:54:14;100247.44;;;2.99;85.39
70468;BME280;57934;51.532;7.684;2022-11-14T02:56:58;100241.25;;;3.00;85.61
70468;BME280;57934;51.532;7.684;2022-11-14T02:59:43;100244.13;;;2.97;86.33
70468;BME280;57934;51.532;7.684;2022-11-14T03:02:28;100243.78;;;2.92;86.38
70468;BME280;57934;51.532;7.684;2022-11-14T03:05:12;100247.84;;;2.94;86.22
70468;BME280;57934;51.532;7.684;2022-11-14T03:07:57;100248.53;;;2.96;86.65
70468;BME280;57934;51.532;7.684;2022-11-14T03:10:41;100250.97;;;2.98;86.64
70468;BME280;57934;51.532;7.684;2022-11-14T03:13:27;100239.47;;;3.00;86.13
70468;BME280;57934;51.532;7.684;2022-11-14T03:16:13;100237.53;;;3.02;85.92
70468;BME280;57934;51.532;7.684;2022-11-14T03:18:58;100238.66;;;3.00;86.21
70468;BME280;57934;51.532;7.684;2022-11-14T03:21:42;100236.84;;;3.00;85.99
70468;BME280;57934;51.532;7.684;2022-11-14T03:24:27;100235.13;;;2.91;85.72
70468;BME280;57934;51.532;7.684;2022-11-14T03:27:12;100237.88;;;2.90;85.97
70468;BME280;57934;51.532;7.684;2022-11-14T03:29:56;100242.84;;;2.83;85.91
70468;BME280;57934;51.532;7.684;2022-11-14T03:32:41;100234.22;;;2.82;86.13
70468;BME280;57934;51.532;7.684;2022-11-14T03:35:26;100238.59;;;2.82;85.53
70468;BME280;57934;51.532;7.684;2022-11-14T03:38:10;100234.06;;;2.84;86.09
70468;BME280;57934;51.532;7.684;2022-11-14T03:40:57;100238.44;;;2.83;86.09
70468;BME280;57934;51.532;7.684;2022-11-14T03:43:42;100239.56;;;2.81;86.11
70468;BME280;57934;51.532;7.684;2022-11-14T03:46:27;100227.78;;;2.77;85.80
70468;BME280;57934;51.532;7.684;2022-11-14T03:49:11;100226.16;;;2.76;85.63
70468;BME280;57934;51.532;7.684;2022-11-14T03:51:56;100222.84;;;2.74;85.89
70468;BME280;57934;51.532;7.684;2022-11-14T03:54:40;100224.81;;;2.72;85.94
70468;BME280;57934;51.532;7.684;2022-11-14T03:57:25;100219.19;;;2.67;85.71
70468;BME280;57934;51.532;7.684;2022-11-14T04:00:10;100223.19;;;2.71;85.55
70468;BME280;57934;51.532;7.684;2022-11-14T04:02:55;100223.19;;;2.71;85.41
70468;BME280;57934;51.532;7.684;2022-11-14T04:05:42;100219.59;;;2.72;85.48
70468;BME280;57934;51.532;7.684;2022-11-14T04:08:27;100210.84;;;2.63;85.06
70468;BME280;57934;51.532;7.684;2022-11-14T04:11:12;100204.84;;;2.62;85.34
70468;BME280;57934;51.532;7.684;2022-11-14T04:13:56;100196.09;;;2.63;85.64
70468;BME280;57934;51.532;7.684;2022-11-14T04:16:41;100205.66;;;2.63;85.65
70468;BME280;57934;51.532;7.684;2022-11-14T04:19:25;100201.41;;;2.62;85.45
70468;BME280;57934;51.532;7.684;2022-11-14T04:22:10;100196.22;;;2.62;85.51
70468;BME280;57934;51.532;7.684;2022-11-14T04:24:54;100197.47;;;2.58;85.80
70468;BME280;57934;51.532;7.684;2022-11-14T04:27:39;100188.97;;;2.56;85.26
70468;BME280;57934;51.532;7.684;2022-11-14T04:30:23;100188.59;;;2.51;85.74
70468;BME280;57934;51.532;7.684;2022-11-14T04:33:08;100182.69;;;2.49;85.05
70468;BME280;57934;51.532;7.684;2022-11-14T04:35:52;100186.00;;;2.51;85.91
70468;BME280;57934;51.532;7.684;2022-11-14T04:38:36;100187.66;;;2.42;85.18
70468;BME280;57934;51.532;7.684;2022-11-14T04:41:22;100190.16;;;2.34;85.00
70468;BME280;57934;51.532;7.684;2022-11-14T04:44:06;100192.63;;;2.35;85.50
70468;BME280;57934;51.532;7.684;2022-11-14T04:46:51;100197.84;;;2.35;85.71
70468;BME280;57934;51.532;7.684;2022-11-14T04:49:35;100197.53;;;2.38;85.49
70468;BME280;57934;51.532;7.684;2022-11-14T04:52:20;100190.25;;;2.42;85.44
70468;BME280;57934;51.532;7.684;2022-11-14T04:55:04;100188.34;;;2.44;84.87
70468;BME280;57934;51.532;7.684;2022-11-14T04:57:53;100194.78;;;2.50;84.23
70468;BME280;57934;51.532;7.684;2022-11-14T05:00:39;100184.66;;;2.47;84.55
70468;BME280;57934;51.532;7.684;2022-11-14T05:03:24;100178.22;;;2.41;84.24
70468;BME280;57934;51.532;7.684;2022-11-14T05:06:09;100182.44;;;2.42;84.79
70468;BME280;57934;51.532;7.684;2022-11-14T05:08:53;100179.72;;;2.44;84.10
70468;BME280;57934;51.532;7.684;2022-11-14T05:11:37;100180.81;;;2.41;84.27
70468;BME280;57934;51.532;7.684;2022-11-14T05:14:22;100181.38;;;2.35;84.58
70468;BME280;57934;51.532;7.684;2022-11-14T05:17:06;100185.66;;;2.36;84.85
70468;BME280;57934;51.532;7.684;2022-11-14T05:19:53;100176.34;;;2.33;84.88
70468;BME280;57934;51.532;7.684;2022-11-14T05:22:38;100173.72;;;2.33;84.98
70468;BME280;57934;51.532;7.684;2022-11-14T05:25:23;100171.41;;;2.30;84.69
70468;BME280;57934;51.532;7.684;2022-11-14T05:28:07;100171.16;;;2.24;84.99
70468;BME280;57934;51.532;7.684;2022-11-14T05:30:52;100167.09;;;2.21;85.12
70468;BME280;57934;51.532;7.684;2022-11-14T05:33:36;100167.09;;;2.21;84.92
70468;BME280;57934;51.532;7.684;2022-11-14T05:36:21;100162.97;;;2.19;84.65
70468;BME280;57934;51.532;7.684;2022-11-14T05:39:05;100161.75;;;2.13;84.89
70468;BME280;57934;51.532;7.684;2022-11-14T05:41:50;100163.53;;;2.12;85.34
70468;BME280;57934;51.532;7.684;2022-11-14T05:44:34;100161.63;;;2.14;85.38
70468;BME280;57934;51.532;7.684;2022-11-14T05:47:19;100157.25;;;2.15;84.88
70468;BME280;57934;51.532;7.684;2022-11-14T05:50:03;100153.28;;;2.11;85.20
70468;BME280;57934;51.532;7.684;2022-11-14T05:52:48;100159.03;;;2.14;85.05
70468;BME280;57934;51.532;7.684;2022-11-14T05:55:32;100162.47;;;2.05;85.20
70468;BME280;57934;51.532;7.684;2022-11-14T05:58:17;100159.16;;;2.03;86.33
70468;BME280;57934;51.532;7.684;2022-11-14T06:01:10;100162.63;;;2.04;86.29
70468;BME280;57934;51.532;7.684;2022-11-14T06:03:55;100158.78;;;2.08;86.47
70468;BME280;57934;51.532;7.684;2022-11-14T06:06:40;100161.91;;;2.11;86.90
70468;BME280;57934;51.532;7.684;2022-11-14T06:09:24;100165.03;;;2.15;86.57
70468;BME280;57934;51.532;7.684;2022-11-14T06:12:09;100158.34;;;2.12;86.64
70468;BME280;57934;51.532;7.684;2022-11-14T06:14:53;100162.28;;;2.17;86.49
70468;BME280;57934;51.532;7.684;2022-11-14T06:17:38;100153.50;;;2.18;86.13
70468;BME280;57934;51.532;7.684;2022-11-14T06:20:23;100150.50;;;2.22;86.09
70468;BME280;57934;51.532;7.684;2022-11-14T06:23:07;100158.72;;;2.18;85.98
70468;BME280;57934;51.532;7.684;2022-11-14T06:25:57;100156.53;;;2.13;86.21
70468;BME280;57934;51.532;7.684;2022-11-14T06:28:42;100150.38;;;2.14;86.26
70468;BME280;57934;51.532;7.684;2022-11-14T06:31:27;100157.38;;;2.13;86.60
70468;BME280;57934;51.532;7.684;2022-11-14T06:34:12;100160.50;;;2.17;86.80
70468;BME280;57934;51.532;7.684;2022-11-14T06:36:56;100162.56;;;2.13;87.28
70468;BME280;57934;51.532;7.684;2022-11-14T06:39:41;100159.03;;;2.14;87.16
70468;BME280;57934;51.532;7.684;2022-11-14T06:42:25;100151.22;;;2.14;86.77
70468;BME280;57934;51.532;7.684;2022-11-14T06:45:10;100149.16;;;2.18;87.10
70468;BME280;57934;51.532;7.684;2022-11-14T06:47:57;100145.31;;;2.22;86.73
70468;BME280;57934;51.532;7.684;2022-11-14T06:50:50;100144.50;;;2.22;87.04
70468;BME280;57934;51.532;7.684;2022-11-14T06:53:34;100154.63;;;2.25;87.37
70468;BME280;57934;51.532;7.684;2022-11-14T06:56:20;100150.75;;;2.29;87.20
70468;BME280;57934;51.532;7.684;2022-11-14T06:59:04;100156.25;;;2.26;86.75
70468;BME280;57934;51.532;7.684;2022-11-14T07:01:49;100153.47;;;2.27;87.13
70468;BME280;57934;51.532;7.684;2022-11-14T07:04:33;100149.94;;;2.28;87.23
70468;BME280;57934;51.532;7.684;2022-11-14T07:07:18;100154.72;;;2.33;86.77
70468;BME280;57934;51.532;7.684;2022-11-14T07:10:02;100154.44;;;2.36;86.72
70468;BME280;57934;51.532;7.684;2022-11-14T07:12:47;100147.81;;;2.42;87.29
70468;BME280;57934;51.532;7.684;2022-11-14T07:15:31;100136.16;;;2.46;86.83
70468;BME280;57934;51.532;7.684;2022-11-14T07:18:16;100138.19;;;2.52;87.00
70468;BME280;57934;51.532;7.684;2022-11-14T07:21:04;100131.81;;;2.64;86.50
70468;BME280;57934;51.532;7.684;2022-11-14T07:23:49;100136.13;;;2.73;86.67
70468;BME280;57934;51.532;7.684;2022-11-14T07:26:35;100133.78;;;2.80;86.59
70468;BME280;57934;51.532;7.684;2022-11-14T07:29:19;100137.44;;;2.87;86.67
70468;BME280;57934;51.532;7.684;2022-11-14T07:32:04;100136.41;;;2.98;86.45
70468;BME280;57934;51.532;7.684;2022-11-14T07:34:50;100132.16;;;3.15;85.98
70468;BME280;57934;51.532;7.684;2022-11-14T07:37:44;100129.91;;;3.55;84.59
70468;BME280;57934;51.532;7.684;2022-11-14T07:43:48;100122.41;;;5.71;77.50
70468;BME280;57934;51.532;7.684;2022-11-14T07:46:38;100122.44;;;6.66;72.80
70468;BME280;57934;51.532;7.684;2022-11-14T07:49:30;100118.34;;;7.40;68.48
70468;BME280;57934;51.532;7.684;2022-11-14T07:52:15;100115.81;;;8.00;66.40
70468;BME280;57934;51.532;7.684;2022-11-14T07:54:59;100118.84;;;8.41;64.54
70468;BME280;57934;51.532;7.684;2022-11-14T07:57:44;100109.78;;;8.80;62.47
70468;BME280;57934;51.532;7.684;2022-11-14T08:00:29;100120.53;;;9.21;61.42
70468;BME280;57934;51.532;7.684;2022-11-14T08:03:14;100120.38;;;9.29;60.62
70468;BME280;57934;51.532;7.684;2022-11-14T08:06:07;100122.88;;;9.59;59.64
70468;BME280;57934;51.532;7.684;2022-11-14T08:08:52;100114.78;;;9.89;58.92
70468;BME280;57934;51.532;7.684;2022-11-14T08:11:37;100108.47;;;10.59;58.35
70468;BME280;57934;51.532;7.684;2022-11-14T08:14:34;100111.22;;;10.99;56.08
70468;BME280;57934;51.532;7.684;2022-11-14T08:17:20;100101.28;;;11.01;55.33
70468;BME280;57934;51.532;7.684;2022-11-14T08:20:06;100095.41;;;10.99;55.04
70468;BME280;57934;51.532;7.684;2022-11-14T08:22:52;100097.44;;;11.43;54.03
70468;BME280;57934;51.532;7.684;2022-11-14T08:25:37;100095.81;;;11.62;53.21
70468;BME280;57934;51.532;7.684;2022-11-14T08:28:22;100091.75;;;11.66;52.72
70468;BME280;57934;51.532;7.684;2022-11-14T08:31:06;100096.19;;;11.99;52.39
70468;BME280;57934;51.532;7.684;2022-11-14T08:33:53;100093.91;;;12.23;52.20
70468;BME280;57934;51.532;7.684;2022-11-14T08:36:37;100088.75;;;12.79;49.96
70468;BME280;57934;51.532;7.684;2022-11-14T08:39:22;100091.31;;;12.93;49.84
70468;BME280;57934;51.532;7.684;2022-11-14T08:42:07;100099.94;;;12.36;51.12
70468;BME280;57934;51.532;7.684;2022-11-14T08:44:51;100096.47;;;12.81;50.72
70468;BME280;57934;51.532;7.684;2022-11-14T08:47:35;100102.16;;;12.46;51.52
70468;BME280;57934;51.532;7.684;2022-11-14T08:50:20;100109.09;;;12.40;53.44
70468;BME280;57934;51.532;7.684;2022-11-14T08:53:04;100107.66;;;12.38;54.93
70468;BME280;57934;51.532;7.684;2022-11-14T08:55:49;100119.41;;;12.94;54.32
70468;BME280;57934;51.532;7.684;2022-11-14T08:58:34;100122.19;;;13.05;53.09
70468;BME280;57934;51.532;7.684;2022-11-14T09:01:20;100124.03;;;13.36;52.85
70468;BME280;57934;51.532;7.684;2022-11-14T09:04:04;100129.69;;;13.08;53.18
70468;BME280;57934;51.532;7.684;2022-11-14T09:06:48;100134.81;;;13.42;52.89
70468;BME280;57934;51.532;7.684;2022-11-14T09:09:33;100131.69;;;13.51;52.04
70468;BME280;57934;51.532;7.684;2022-11-14T09:12:18;100130.47;;;13.47;51.85
70468;BME280;57934;51.532;7.684;2022-11-14T09:15:03;100118.03;;;13.16;52.76
70468;BME280;57934;51.532;7.684;2022-11-14T09:17:47;100111.72;;;13.24;52.55
70468;BME280;57934;51.532;7.684;2022-11-14T09:20:35;100122.09;;;13.50;52.61
70468;BME280;57934;51.532;7.684;2022-11-14T09:23:20;100123.78;;;13.45;52.78
70468;BME280;57934;51.532;7.684;2022-11-14T09:26:06;100127.34;;;12.94;53.41
70468;BME280;57934;51.532;7.684;2022-11-14T09:28:51;100130.69;;;12.76;54.64
70468;BME280;57934;51.532;7.684;2022-11-14T09:31:35;100129.47;;;12.27;55.50
70468;BME280;57934;51.532;7.684;2022-11-14T09:34:20;100139.25;;;11.27;58.44
70468;BME280;57934;51.532;7.684;2022-11-14T09:37:04;100129.41;;;10.67;60.69
70468;BME280;57934;51.532;7.684;2022-11-14T09:39:49;100130.94;;;10.48;61.98
70468;BME280;57934;51.532;7.684;2022-11-14T09:42:56;100123.41;;;10.11;63.16
70468;BME280;57934;51.532;7.684;2022-11-14T09:45:50;100129.34;;;9.85;64.46
70468;BME280;57934;51.532;7.684;2022-11-14T09:48:36;100129.13;;;9.86;64.79
70468;BME280;57934;51.532;7.684;2022-11-14T09:51:32;100120.09;;;9.67;65.26
70468;BME280;57934;51.532;7.684;2022-11-14T09:54:23;100112.13;;;9.32;66.23
70468;BME280;57934;51.532;7.684;2022-11-14T09:57:14;100121.09;;;9.17;67.10
70468;BME280;57934;51.532;7.684;2022-11-14T09:59:59;100118.13;;;9.05;67.60
70468;BME280;57934;51.532;7.684;2022-11-14T10:03:19;100127.22;;;9.02;67.98
70468;BME280;57934;51.532;7.684;2022-11-14T10:06:31;100127.66;;;8.70;68.54
70468;BME280;57934;51.532;7.684;2022-11-14T10:12:19;100120.09;;;8.60;69.81
70468;BME280;57934;51.532;7.684;2022-11-14T10:15:18;100116.97;;;8.71;69.55
70468;BME280;57934;51.532;7.684;2022-11-14T10:18:17;100123.75;;;9.02;69.17
70468;BME280;57934;51.532;7.684;2022-11-14T10:21:20;100129.78;;;9.17;68.42
70468;BME280;57934;51.532;7.684;2022-11-14T10:27:17;100116.19;;;9.14;68.81
70468;BME280;57934;51.532;7.684;2022-11-14T10:30:04;100118.47;;;9.17;68.53
70468;BME280;57934;51.532;7.684;2022-11-14T10:32:59;100128.28;;;9.29;68.87
70468;BME280;57934;51.532;7.684;2022-11-14T10:39:39;100119.78;;;9.06;69.44
70468;BME280;57934;51.532;7.684;2022-11-14T10:42:38;100124.66;;;9.30;69.03
70468;BME280;57934;51.532;7.684;2022-11-14T10:45:27;100132.53;;;9.52;68.06
70468;BME280;57934;51.532;7.684;2022-11-14T10:48:19;100131.97;;;9.35;68.39
70468;BME280;57934;51.532;7.684;2022-11-14T10:57:19;100081.75;;;9.58;68.55
70468;BME280;57934;51.532;7.684;2022-11-14T11:00:12;100092.78;;;10.03;67.22
70468;BME280;57934;51.532;7.684;2022-11-14T11:02:57;100093.00;;;10.08;66.81
70468;BME280;57934;51.532;7.684;2022-11-14T11:05:50;100080.31;;;10.80;66.41
70468;BME280;57934;51.532;7.684;2022-11-14T11:08:41;100063.13;;;10.97;64.37
70468;BME280;57934;51.532;7.684;2022-11-14T11:11:53;100070.03;;;11.11;63.57
70468;BME280;57934;51.532;7.684;2022-11-14T11:14:39;100047.50;;;11.35;62.82
70468;BME280;57934;51.532;7.684;2022-11-14T11:17:23;100032.91;;;12.56;60.20
70468;BME280;57934;51.532;7.684;2022-11-14T11:20:28;100036.78;;;13.17;57.83
70468;BME280;57934;51.532;7.684;2022-11-14T11:23:18;100035.75;;;16.12;51.10
70468;BME280;57934;51.532;7.684;2022-11-14T11:26:16;100026.47;;;18.93;43.89
70468;BME280;57934;51.532;7.684;2022-11-14T11:31:50;99999.56;;;18.73;42.52
70468;BME280;57934;51.532;7.684;2022-11-14T11:34:35;100002.56;;;18.27;42.63
70468;BME280;57934;51.532;7.684;2022-11-14T11:37:23;99996.38;;;20.03;40.88
70468;BME280;57934;51.532;7.684;2022-11-14T11:40:19;100009.94;;;20.69;38.42
70468;BME280;57934;51.532;7.684;2022-11-14T11:43:23;100004.03;;;19.74;39.71
70468;BME280;57934;51.532;7.684;2022-11-14T11:46:21;100002.94;;;19.27;40.72
70468;BME280;57934;51.532;7.684;2022-11-14T11:49:17;100004.19;;;20.25;39.43
70468;BME280;57934;51.532;7.684;2022-11-14T11:52:11;100004.63;;;19.39;39.61
70468;BME280;57934;51.532;7.684;2022-11-14T11:58:04;100008.44;;;17.80;43.04
70468;BME280;57934;51.532;7.684;2022-11-14T12:00:53;99998.28;;;15.38;48.50
70468;BME280;57934;51.532;7.684;2022-11-14T12:03:50;100005.69;;;13.05;54.87
70468;BME280;57934;51.532;7.684;2022-11-14T12:09:54;99998.78;;;11.11;62.15
70468;BME280;57934;51.532;7.684;2022-11-14T12:28:04;100005.41;;;10.47;66.36
70468;BME280;57934;51.532;7.684;2022-11-14T12:30:58;100019.34;;;10.28;67.49
70468;BME280;57934;51.532;7.684;2022-11-14T12:33:53;100028.16;;;10.07;68.40
70468;BME280;57934;51.532;7.684;2022-11-14T12:36:42;100017.63;;;10.14;68.24
70468;BME280;57934;51.532;7.684;2022-11-14T12:39:29;99999.44;;;10.19;68.27
70468;BME280;57934;51.532;7.684;2022-11-14T12:42:19;100005.91;;;10.16;68.48
70468;BME280;57934;51.532;7.684;2022-11-14T12:54:41;100012.56;;;10.12;69.13
70468;BME280;57934;51.532;7.684;2022-11-14T12:57:38;99997.44;;;10.27;68.81
70468;BME280;57934;51.532;7.684;2022-11-14T13:00:33;99986.09;;;10.27;68.85
70468;BME280;57934;51.532;7.684;2022-11-14T13:13:13;99964.69;;;10.77;68.22
70468;BME280;57934;51.532;7.684;2022-11-14T13:16:25;99954.75;;;10.92;67.67
70468;BME280;57934;51.532;7.684;2022-11-14T13:19:32;99944.97;;;11.12;67.72
70468;BME280;57934;51.532;7.684;2022-11-14T13:22:38;99955.91;;;11.36;67.00
70468;BME280;57934;51.532;7.684;2022-11-14T13:25:24;99958.16;;;11.39;67.13
70468;BME280;57934;51.532;7.684;2022-11-14T13:31:44;99945.97;;;11.44;67.10
70468;BME280;57934;51.532;7.684;2022-11-14T13:40:32;99913.75;;;11.09;68.26
70468;BME280;57934;51.532;7.684;2022-11-14T13:52:34;99909.28;;;11.10;69.49
70468;BME280;57934;51.532;7.684;2022-11-14T14:08:11;99918.03;;;10.90;69.77
70468;BME280;57934;51.532;7.684;2022-11-14T14:20:44;99894.69;;;10.87;69.88
70468;BME280;57934;51.532;7.684;2022-11-14T14:26:35;99905.44;;;10.59;71.39
70468;BME280;57934;51.532;7.684;2022-11-14T14:29:39;99902.22;;;10.57;71.69
70468;BME280;57934;51.532;7.684;2022-11-14T14:32:28;99894.91;;;10.52;71.82
70468;BME280;57934;51.532;7.684;2022-11-14T14:35:28;99886.00;;;10.47;72.02
70468;BME280;57934;51.532;7.684;2022-11-14T14:38:27;99880.50;;;10.35;72.12
70468;BME280;57934;51.532;7.684;2022-11-14T14:41:13;99893.22;;;10.18;72.17
70468;BME280;57934;51.532;7.684;2022-11-14T14:44:00;99892.81;;;10.08;72.43
70468;BME280;57934;51.532;7.684;2022-11-14T14:46:45;99901.69;;;10.07;72.47
70468;BME280;57934;51.532;7.684;2022-11-14T14:49:34;99900.03;;;9.93;72.98
70468;BME280;57934;51.532;7.684;2022-11-14T14:52:30;99891.97;;;9.94;73.44
70468;BME280;57934;51.532;7.684;2022-11-14T14:55:22;99893.38;;;9.97;72.80
70468;BME280;57934;51.532;7.684;2022-11-14T14:58:33;99887.91;;;9.98;72.52
70468;BME280;57934;51.532;7.684;2022-11-14T15:01:20;99885.84;;;9.80;72.60
70468;BME280;57934;51.532;7.684;2022-11-14T15:04:13;99900.19;;;9.71;73.27
70468;BME280;57934;51.532;7.684;2022-11-14T15:06:58;99904.81;;;9.63;73.73
70468;BME280;57934;51.532;7.684;2022-11-14T15:12:37;99900.13;;;9.51;73.41
70468;BME280;57934;51.532;7.684;2022-11-14T15:15:24;99881.06;;;9.49;73.45
70468;BME280;57934;51.532;7.684;2022-11-14T15:18:23;99897.03;;;9.41;73.96
70468;BME280;57934;51.532;7.684;2022-11-14T15:21:29;99892.31;;;9.37;74.04
70468;BME280;57934;51.532;7.684;2022-11-14T15:24:21;99886.03;;;9.31;74.32
70468;BME280;57934;51.532;7.684;2022-11-14T15:27:19;99890.50;;;9.30;74.02
70468;BME280;57934;51.532;7.684;2022-11-14T15:30:06;99893.31;;;9.29;74.30
70468;BME280;57934;51.532;7.684;2022-11-14T15:32:56;99889.66;;;9.23;74.41
70468;BME280;57934;51.532;7.684;2022-11-14T15:35:41;99890.84;;;9.21;74.56
70468;BME280;57934;51.532;7.684;2022-11-14T15:38:26;99882.53;;;9.17;74.39
70468;BME280;57934;51.532;7.684;2022-11-14T15:41:20;99892.41;;;9.15;74.53
70468;BME280;57934;51.532;7.684;2022-11-14T15:44:29;99896.28;;;9.13;75.01
70468;BME280;57934;51.532;7.684;2022-11-14T15:50:31;99888.09;;;9.01;75.61
70468;BME280;57934;51.532;7.684;2022-11-14T15:53:25;99885.72;;;9.06;75.13
70468;BME280;57934;51.532;7.684;2022-11-14T15:56:12;99886.13;;;9.10;75.32
70468;BME280;57934;51.532;7.684;2022-11-14T15:58:57;99884.53;;;9.15;75.25
70468;BME280;57934;51.532;7.684;2022-11-14T16:01:45;99891.19;;;9.11;75.42
70468;BME280;57934;51.532;7.684;2022-11-14T16:04:33;99889.16;;;9.06;75.48
70468;BME280;57934;51.532;7.684;2022-11-14T16:07:18;99886.69;;;9.05;75.61
70468;BME280;57934;51.532;7.684;2022-11-14T16:10:24;99874.13;;;9.00;75.54
70468;BME280;57934;51.532;7.684;2022-11-14T16:13:09;99874.34;;;9.05;75.72
70468;BME280;57934;51.532;7.684;2022-11-14T16:15:54;99871.28;;;9.02;75.76
70468;BME280;57934;51.532;7.684;2022-11-14T16:18:38;99862.41;;;9.03;75.83
70468;BME280;57934;51.532;7.684;2022-11-14T16:25:15;99851.81;;;8.90;76.24
70468;BME280;57934;51.532;7.684;2022-11-14T16:28:04;99844.94;;;8.89;76.55
70468;BME280;57934;51.532;7.684;2022-11-14T16:30:57;99841.50;;;8.88;76.55
70468;BME280;57934;51.532;7.684;2022-11-14T16:33:52;99844.94;;;8.89;76.44
70468;BME280;57934;51.532;7.684;2022-11-14T16:36:41;99843.72;;;8.91;76.63
70468;BME280;57934;51.532;7.684;2022-11-14T16:39:37;99839.47;;;8.90;76.43
70468;BME280;57934;51.532;7.684;2022-11-14T16:42:23;99840.06;;;8.86;76.87
70468;BME280;57934;51.532;7.684;2022-11-14T16:45:08;99839.25;;;8.85;76.92
70468;BME280;57934;51.532;7.684;2022-11-14T16:47:53;99834.97;;;8.84;77.12
70468;BME280;57934;51.532;7.684;2022-11-14T16:50:38;99835.19;;;8.82;77.34